AAL3297 KSAT-KCLT
Flight info
| Callsign | AAL3297 |
|---|---|
| Flight time | 2h 4m |
| Altitude | 33000 |
| Route | SNIDR2 MOLLR KH03G AEX WINAP STNGA BESTT JONZE5 |
| Aircraft | A320/M-SDE3FGHIRWY/LB1 |
Departure
| Time | 2026-05-07 16:42 |
|---|---|
| Airport | San Antonio International Airport (KSAT) |
Arrival
| Time | 2026-05-07 18:46 |
|---|---|
| Airport | Charlotte Douglas International Airport (KCLT) |
| Time | Latitude | Longitude | Altitude | Speed | Heading |
|---|---|---|---|---|---|
| 2026-05-07 15:56 | 29.52794 | -98.47222 | 796 ft | 0 kts | 312° |
| 2026-05-07 16:32 | 29.52790 | -98.47216 | 798 ft | 4 kts | 311° |
| 2026-05-07 16:32 | 29.52773 | -98.47192 | 797 ft | 4 kts | 306° |
| 2026-05-07 16:33 | 29.52759 | -98.47172 | 798 ft | 0 kts | 323° |
| 2026-05-07 16:36 | 29.52768 | -98.47165 | 796 ft | 5 kts | 49° |
| 2026-05-07 16:37 | 29.52795 | -98.47120 | 800 ft | 8 kts | 52° |
| 2026-05-07 16:37 | 29.52836 | -98.47072 | 800 ft | 9 kts | 41° |
| 2026-05-07 16:37 | 29.52846 | -98.47007 | 800 ft | 9 kts | 121° |
| 2026-05-07 16:37 | 29.52808 | -98.46953 | 800 ft | 8 kts | 126° |
| 2026-05-07 16:38 | 29.52776 | -98.46910 | 800 ft | 6 kts | 136° |
| 2026-05-07 16:38 | 29.52745 | -98.46876 | 800 ft | 7 kts | 134° |
| 2026-05-07 16:38 | 29.52707 | -98.46831 | 800 ft | 9 kts | 140° |
| 2026-05-07 16:38 | 29.52645 | -98.46843 | 800 ft | 10 kts | 220° |
| 2026-05-07 16:39 | 29.52594 | -98.46893 | 800 ft | 9 kts | 221° |
| 2026-05-07 16:39 | 29.52546 | -98.46938 | 800 ft | 10 kts | 219° |
| 2026-05-07 16:39 | 29.52487 | -98.46997 | 800 ft | 12 kts | 221° |
| 2026-05-07 16:39 | 29.52430 | -98.47054 | 800 ft | 9 kts | 217° |
| 2026-05-07 16:40 | 29.52379 | -98.47043 | 800 ft | 7 kts | 136° |
| 2026-05-07 16:40 | 29.52349 | -98.47003 | 800 ft | 6 kts | 131° |
| 2026-05-07 16:40 | 29.52341 | -98.46967 | 800 ft | 4 kts | 71° |
| 2026-05-07 16:40 | 29.52357 | -98.46955 | 800 ft | 0 kts | 36° |
| 2026-05-07 16:41 | 29.52404 | -98.46911 | 799 ft | 34 kts | 40° |
| 2026-05-07 16:41 | 29.52768 | -98.46555 | 799 ft | 100 kts | 40° |
| 2026-05-07 16:41 | 29.53438 | -98.45890 | 812 ft | 151 kts | 40° |
| 2026-05-07 16:41 | 29.54241 | -98.45098 | 1386 ft | 153 kts | 40° |
| 2026-05-07 16:42 | 29.55025 | -98.44255 | 2137 ft | 156 kts | 51° |
| 2026-05-07 16:42 | 29.55560 | -98.43166 | 2694 ft | 161 kts | 63° |
| 2026-05-07 16:42 | 29.56045 | -98.41909 | 2947 ft | 184 kts | 64° |
| 2026-05-07 16:42 | 29.56591 | -98.40465 | 3213 ft | 209 kts | 65° |
| 2026-05-07 16:43 | 29.57213 | -98.38848 | 3566 ft | 233 kts | 65° |
| 2026-05-07 16:43 | 29.57901 | -98.37091 | 3955 ft | 256 kts | 65° |
| 2026-05-07 16:43 | 29.58662 | -98.35167 | 4612 ft | 266 kts | 66° |
| 2026-05-07 16:43 | 29.59436 | -98.33223 | 5263 ft | 275 kts | 66° |
| 2026-05-07 16:44 | 29.60246 | -98.31207 | 6001 ft | 280 kts | 66° |
| 2026-05-07 16:44 | 29.61076 | -98.29159 | 6730 ft | 285 kts | 66° |
| 2026-05-07 16:44 | 29.61919 | -98.27085 | 7416 ft | 290 kts | 65° |
| 2026-05-07 16:44 | 29.62723 | -98.24936 | 8074 ft | 297 kts | 73° |
| 2026-05-07 16:45 | 29.63139 | -98.22585 | 8729 ft | 303 kts | 85° |
| 2026-05-07 16:45 | 29.63356 | -98.20168 | 9459 ft | 307 kts | 85° |
| 2026-05-07 16:45 | 29.63580 | -98.17705 | 10118 ft | 313 kts | 85° |
| 2026-05-07 16:45 | 29.63818 | -98.15147 | 10431 ft | 333 kts | 85° |
| 2026-05-07 16:46 | 29.64073 | -98.12417 | 10653 ft | 353 kts | 85° |
| 2026-05-07 16:46 | 29.64338 | -98.09571 | 11157 ft | 362 kts | 85° |
| 2026-05-07 16:46 | 29.64607 | -98.06674 | 11764 ft | 368 kts | 85° |
| 2026-05-07 16:46 | 29.64879 | -98.03730 | 12351 ft | 374 kts | 85° |
| 2026-05-07 16:47 | 29.65083 | -98.00728 | 12930 ft | 379 kts | 91° |
| 2026-05-07 16:47 | 29.65127 | -97.97675 | 13515 ft | 385 kts | 91° |
| 2026-05-07 16:47 | 29.65170 | -97.94577 | 14073 ft | 390 kts | 91° |
| 2026-05-07 16:47 | 29.65213 | -97.91447 | 14634 ft | 394 kts | 92° |
| 2026-05-07 16:48 | 29.65257 | -97.88284 | 15174 ft | 398 kts | 92° |
| 2026-05-07 16:48 | 29.65303 | -97.85085 | 15720 ft | 403 kts | 92° |
| 2026-05-07 16:48 | 29.65347 | -97.81845 | 16254 ft | 407 kts | 92° |
| 2026-05-07 16:48 | 29.65393 | -97.78577 | 16788 ft | 412 kts | 92° |
| 2026-05-07 16:49 | 29.65437 | -97.75264 | 17324 ft | 416 kts | 93° |
| 2026-05-07 16:49 | 29.65474 | -97.71925 | 17861 ft | 420 kts | 93° |
| 2026-05-07 16:49 | 29.65506 | -97.68543 | 18388 ft | 425 kts | 94° |
| 2026-05-07 16:49 | 29.65532 | -97.65130 | 18847 ft | 429 kts | 93° |
| 2026-05-07 16:50 | 29.65561 | -97.61689 | 19316 ft | 433 kts | 93° |
| 2026-05-07 16:50 | 29.65592 | -97.58215 | 19801 ft | 436 kts | 93° |
| 2026-05-07 16:50 | 29.65627 | -97.54716 | 20287 ft | 439 kts | 93° |
| 2026-05-07 16:50 | 29.65665 | -97.51194 | 20761 ft | 443 kts | 92° |
| 2026-05-07 16:51 | 29.65700 | -97.47635 | 21223 ft | 447 kts | 92° |
| 2026-05-07 16:51 | 29.65731 | -97.44054 | 21679 ft | 450 kts | 92° |
| 2026-05-07 16:51 | 29.65760 | -97.40436 | 22137 ft | 454 kts | 92° |
| 2026-05-07 16:51 | 29.65790 | -97.36842 | 22585 ft | 458 kts | 92° |
| 2026-05-07 16:52 | 29.65821 | -97.33168 | 23032 ft | 462 kts | 92° |
| 2026-05-07 16:52 | 29.65852 | -97.29410 | 23459 ft | 465 kts | 92° |
| 2026-05-07 16:52 | 29.65881 | -97.25678 | 23854 ft | 469 kts | 92° |
| 2026-05-07 16:52 | 29.65908 | -97.21969 | 24207 ft | 472 kts | 92° |
| 2026-05-07 16:53 | 29.65935 | -97.18183 | 24561 ft | 475 kts | 92° |
| 2026-05-07 16:53 | 29.65962 | -97.14378 | 24881 ft | 478 kts | 92° |
| 2026-05-07 16:53 | 29.65988 | -97.10552 | 25224 ft | 481 kts | 92° |
| 2026-05-07 16:53 | 29.66010 | -97.06696 | 25558 ft | 483 kts | 92° |
| 2026-05-07 16:54 | 29.66030 | -97.02819 | 25889 ft | 486 kts | 92° |
| 2026-05-07 16:54 | 29.66048 | -96.98925 | 26182 ft | 489 kts | 93° |
| 2026-05-07 16:54 | 29.66066 | -96.95009 | 26508 ft | 491 kts | 93° |
| 2026-05-07 16:54 | 29.66086 | -96.91067 | 26823 ft | 494 kts | 93° |
| 2026-05-07 16:55 | 29.66103 | -96.87105 | 27137 ft | 497 kts | 93° |
| 2026-05-07 16:55 | 29.66116 | -96.83128 | 27413 ft | 499 kts | 93° |
| 2026-05-07 16:55 | 29.66130 | -96.79126 | 27732 ft | 502 kts | 93° |
| 2026-05-07 16:55 | 29.66148 | -96.75106 | 28038 ft | 504 kts | 93° |
| 2026-05-07 16:56 | 29.66165 | -96.71065 | 28343 ft | 507 kts | 93° |
| 2026-05-07 16:56 | 29.66181 | -96.67005 | 28615 ft | 509 kts | 93° |
| 2026-05-07 16:56 | 29.66205 | -96.58837 | 29192 ft | 513 kts | 93° |
| 2026-05-07 16:57 | 29.66213 | -96.54733 | 29561 ft | 514 kts | 93° |
| 2026-05-07 16:57 | 29.66220 | -96.50607 | 29842 ft | 517 kts | 93° |
| 2026-05-07 16:57 | 29.66226 | -96.46471 | 30107 ft | 519 kts | 93° |
| 2026-05-07 16:57 | 29.66227 | -96.42321 | 30361 ft | 520 kts | 93° |
| 2026-05-07 16:58 | 29.66224 | -96.38153 | 30598 ft | 522 kts | 94° |
| 2026-05-07 16:58 | 29.66215 | -96.33974 | 30813 ft | 523 kts | 94° |
| 2026-05-07 16:58 | 29.66204 | -96.29785 | 31025 ft | 525 kts | 94° |
| 2026-05-07 16:58 | 29.66190 | -96.25587 | 31301 ft | 525 kts | 94° |
| 2026-05-07 16:59 | 29.66177 | -96.21398 | 31585 ft | 524 kts | 94° |
| 2026-05-07 16:59 | 29.66165 | -96.17212 | 31858 ft | 524 kts | 94° |
| 2026-05-07 16:59 | 29.66151 | -96.13032 | 32132 ft | 523 kts | 94° |
| 2026-05-07 16:59 | 29.66137 | -96.08847 | 32422 ft | 523 kts | 94° |
| 2026-05-07 17:00 | 29.66122 | -96.04727 | 32743 ft | 521 kts | 94° |
| 2026-05-07 17:00 | 29.66105 | -96.00562 | 33012 ft | 521 kts | 94° |
| 2026-05-07 17:00 | 29.66075 | -95.92332 | 33102 ft | 508 kts | 94° |
| 2026-05-07 17:01 | 29.66034 | -95.84201 | 33098 ft | 504 kts | 94° |
| 2026-05-07 17:01 | 29.65983 | -95.76151 | 33081 ft | 504 kts | 94° |
| 2026-05-07 17:02 | 29.65918 | -95.68093 | 33091 ft | 504 kts | 94° |
| 2026-05-07 17:02 | 29.65841 | -95.60041 | 33066 ft | 504 kts | 94° |
| 2026-05-07 17:03 | 29.65759 | -95.51993 | 33070 ft | 504 kts | 94° |
| 2026-05-07 17:03 | 29.65693 | -95.43942 | 33072 ft | 504 kts | 94° |
| 2026-05-07 17:04 | 29.65652 | -95.35890 | 33072 ft | 504 kts | 91° |
| 2026-05-07 17:04 | 29.66866 | -95.27992 | 33059 ft | 509 kts | 70° |
| 2026-05-07 17:05 | 29.70162 | -95.20849 | 33064 ft | 505 kts | 50° |
| 2026-05-07 17:05 | 29.74450 | -95.14447 | 33055 ft | 506 kts | 50° |
| 2026-05-07 17:06 | 29.78744 | -95.08015 | 33043 ft | 507 kts | 50° |
| 2026-05-07 17:06 | 29.83049 | -95.01558 | 33045 ft | 509 kts | 50° |
| 2026-05-07 17:07 | 29.87359 | -94.95087 | 33038 ft | 509 kts | 49° |
| 2026-05-07 17:07 | 29.90952 | -94.89709 | 33042 ft | 510 kts | 50° |
| 2026-05-07 17:08 | 29.95269 | -94.83226 | 33044 ft | 510 kts | 50° |
| 2026-05-07 17:08 | 29.99586 | -94.76721 | 33053 ft | 511 kts | 50° |
| 2026-05-07 17:09 | 30.03900 | -94.70207 | 33098 ft | 511 kts | 50° |
| 2026-05-07 17:09 | 30.08228 | -94.63676 | 33071 ft | 512 kts | 50° |
| 2026-05-07 17:10 | 30.12557 | -94.57132 | 33055 ft | 513 kts | 49° |
| 2026-05-07 17:10 | 30.16884 | -94.50574 | 33061 ft | 513 kts | 50° |
| 2026-05-07 17:11 | 30.21207 | -94.44000 | 33066 ft | 514 kts | 50° |
| 2026-05-07 17:11 | 30.25527 | -94.37420 | 33078 ft | 514 kts | 50° |
| 2026-05-07 17:12 | 30.29847 | -94.30838 | 33080 ft | 514 kts | 50° |
| 2026-05-07 17:12 | 30.34167 | -94.24238 | 33114 ft | 514 kts | 50° |
| 2026-05-07 17:13 | 30.38497 | -94.17630 | 33086 ft | 515 kts | 50° |
| 2026-05-07 17:13 | 30.42827 | -94.11008 | 33088 ft | 516 kts | 50° |
| 2026-05-07 17:14 | 30.47153 | -94.04370 | 33092 ft | 516 kts | 50° |
| 2026-05-07 17:14 | 30.51249 | -93.97590 | 33088 ft | 519 kts | 57° |
| 2026-05-07 17:15 | 30.54940 | -93.90398 | 33094 ft | 519 kts | 57° |
| 2026-05-07 17:15 | 30.58631 | -93.83194 | 33094 ft | 519 kts | 57° |
| 2026-05-07 17:16 | 30.62322 | -93.75985 | 33083 ft | 520 kts | 57° |
| 2026-05-07 17:16 | 30.66020 | -93.68758 | 33084 ft | 521 kts | 57° |
| 2026-05-07 17:17 | 30.69715 | -93.61511 | 33087 ft | 521 kts | 57° |
| 2026-05-07 17:17 | 30.73402 | -93.54259 | 33090 ft | 522 kts | 57° |
| 2026-05-07 17:18 | 30.77092 | -93.46990 | 33093 ft | 522 kts | 57° |
| 2026-05-07 17:18 | 30.80783 | -93.39719 | 33092 ft | 522 kts | 57° |
| 2026-05-07 17:19 | 30.84473 | -93.32444 | 33093 ft | 522 kts | 57° |
| 2026-05-07 17:19 | 30.88159 | -93.25156 | 33097 ft | 522 kts | 57° |
| 2026-05-07 17:20 | 30.91831 | -93.17863 | 33107 ft | 522 kts | 57° |
| 2026-05-07 17:20 | 30.95480 | -93.10609 | 33082 ft | 523 kts | 57° |
| 2026-05-07 17:21 | 30.99150 | -93.03304 | 33086 ft | 523 kts | 57° |
| 2026-05-07 17:21 | 31.02824 | -92.95981 | 33087 ft | 523 kts | 57° |
| 2026-05-07 17:22 | 31.06490 | -92.88659 | 33093 ft | 523 kts | 57° |
| 2026-05-07 17:22 | 31.10160 | -92.81327 | 33114 ft | 523 kts | 57° |
| 2026-05-07 17:23 | 31.13819 | -92.73996 | 33101 ft | 523 kts | 57° |
| 2026-05-07 17:23 | 31.17473 | -92.66646 | 33094 ft | 523 kts | 57° |
| 2026-05-07 17:24 | 31.21120 | -92.59287 | 33083 ft | 523 kts | 57° |
| 2026-05-07 17:24 | 31.24769 | -92.51932 | 33109 ft | 524 kts | 57° |
| 2026-05-07 17:25 | 31.28347 | -92.44504 | 33098 ft | 525 kts | 59° |
| 2026-05-07 17:25 | 31.31738 | -92.37008 | 33085 ft | 525 kts | 60° |
| 2026-05-07 17:26 | 31.35112 | -92.29433 | 33086 ft | 525 kts | 60° |
| 2026-05-07 17:26 | 31.38526 | -92.21877 | 33075 ft | 525 kts | 60° |
| 2026-05-07 17:27 | 31.41970 | -92.14345 | 33081 ft | 525 kts | 60° |
| 2026-05-07 17:27 | 31.45403 | -92.06799 | 33080 ft | 525 kts | 60° |
| 2026-05-07 17:28 | 31.48824 | -91.99234 | 33078 ft | 525 kts | 60° |
| 2026-05-07 17:28 | 31.52233 | -91.91666 | 33111 ft | 526 kts | 60° |
| 2026-05-07 17:29 | 31.55645 | -91.84085 | 33078 ft | 526 kts | 60° |
| 2026-05-07 17:29 | 31.59061 | -91.76488 | 33075 ft | 527 kts | 60° |
| 2026-05-07 17:30 | 31.62476 | -91.68877 | 33080 ft | 527 kts | 60° |
| 2026-05-07 17:30 | 31.65889 | -91.61259 | 33078 ft | 527 kts | 60° |
| 2026-05-07 17:31 | 31.69291 | -91.53626 | 33076 ft | 528 kts | 60° |
| 2026-05-07 17:31 | 31.72692 | -91.45992 | 33078 ft | 528 kts | 60° |
| 2026-05-07 17:32 | 31.76098 | -91.38350 | 33082 ft | 528 kts | 60° |
| 2026-05-07 17:32 | 31.79492 | -91.30702 | 33112 ft | 528 kts | 60° |
| 2026-05-07 17:33 | 31.82886 | -91.23043 | 33093 ft | 528 kts | 60° |
| 2026-05-07 17:33 | 31.86269 | -91.15375 | 33090 ft | 528 kts | 60° |
| 2026-05-07 17:34 | 31.89660 | -91.07707 | 33083 ft | 528 kts | 60° |
| 2026-05-07 17:34 | 31.93045 | -91.00033 | 33082 ft | 528 kts | 60° |
| 2026-05-07 17:35 | 31.96419 | -90.92346 | 33083 ft | 528 kts | 60° |
| 2026-05-07 17:35 | 31.99785 | -90.84655 | 33083 ft | 528 kts | 60° |
| 2026-05-07 17:36 | 32.03130 | -90.77015 | 33082 ft | 528 kts | 60° |
| 2026-05-07 17:36 | 32.06494 | -90.69314 | 33068 ft | 528 kts | 60° |
| 2026-05-07 17:37 | 32.09853 | -90.61610 | 33100 ft | 529 kts | 60° |
| 2026-05-07 17:37 | 32.13214 | -90.53885 | 33091 ft | 529 kts | 60° |
| 2026-05-07 17:38 | 32.16567 | -90.46146 | 33096 ft | 530 kts | 60° |
| 2026-05-07 17:38 | 32.19915 | -90.38406 | 33100 ft | 530 kts | 60° |
| 2026-05-07 17:39 | 32.23264 | -90.30656 | 33092 ft | 530 kts | 60° |
| 2026-05-07 17:39 | 32.26605 | -90.22896 | 33091 ft | 530 kts | 60° |
| 2026-05-07 17:40 | 32.29946 | -90.15135 | 33093 ft | 530 kts | 60° |
| 2026-05-07 17:40 | 32.33287 | -90.07366 | 33095 ft | 530 kts | 60° |
| 2026-05-07 17:41 | 32.36621 | -89.99587 | 33087 ft | 531 kts | 60° |
| 2026-05-07 17:41 | 32.39948 | -89.91791 | 33054 ft | 531 kts | 60° |
| 2026-05-07 17:42 | 32.43273 | -89.83986 | 33056 ft | 531 kts | 60° |
| 2026-05-07 17:42 | 32.46575 | -89.76222 | 33059 ft | 532 kts | 60° |
| 2026-05-07 17:43 | 32.49899 | -89.68397 | 33060 ft | 532 kts | 60° |
| 2026-05-07 17:43 | 32.53238 | -89.60510 | 33063 ft | 532 kts | 60° |
| 2026-05-07 17:44 | 32.56533 | -89.52731 | 33066 ft | 532 kts | 60° |
| 2026-05-07 17:44 | 32.59839 | -89.44892 | 33063 ft | 532 kts | 60° |
| 2026-05-07 17:45 | 32.63092 | -89.37005 | 33103 ft | 534 kts | 65° |
| 2026-05-07 17:45 | 32.65431 | -89.28619 | 33070 ft | 536 kts | 72° |
| 2026-05-07 17:46 | 32.67617 | -89.20155 | 33047 ft | 536 kts | 72° |
| 2026-05-07 17:46 | 32.69810 | -89.11698 | 33058 ft | 536 kts | 71° |
| 2026-05-07 17:47 | 32.72024 | -89.03242 | 33074 ft | 536 kts | 71° |
| 2026-05-07 17:47 | 32.74218 | -88.94772 | 33104 ft | 537 kts | 72° |
| 2026-05-07 17:48 | 32.76395 | -88.86292 | 33102 ft | 537 kts | 72° |
| 2026-05-07 17:48 | 32.78577 | -88.77814 | 33102 ft | 537 kts | 72° |
| 2026-05-07 17:49 | 32.80755 | -88.69329 | 33102 ft | 537 kts | 72° |
| 2026-05-07 17:49 | 32.82923 | -88.60835 | 33091 ft | 537 kts | 72° |
| 2026-05-07 17:50 | 32.85088 | -88.52343 | 33078 ft | 537 kts | 72° |
| 2026-05-07 17:50 | 32.87247 | -88.43845 | 33060 ft | 537 kts | 72° |
| 2026-05-07 17:51 | 32.89402 | -88.35337 | 33071 ft | 538 kts | 72° |
| 2026-05-07 17:51 | 32.91552 | -88.26815 | 33068 ft | 538 kts | 72° |
| 2026-05-07 17:52 | 32.93704 | -88.18272 | 33060 ft | 539 kts | 72° |
| 2026-05-07 17:52 | 32.95852 | -88.09712 | 33051 ft | 539 kts | 72° |
| 2026-05-07 17:53 | 32.97996 | -88.01147 | 33055 ft | 540 kts | 72° |
| 2026-05-07 17:53 | 33.00132 | -87.92573 | 33058 ft | 540 kts | 72° |
| 2026-05-07 17:54 | 33.02252 | -87.83987 | 33056 ft | 540 kts | 72° |
| 2026-05-07 17:54 | 33.04371 | -87.75401 | 33054 ft | 540 kts | 72° |
| 2026-05-07 17:55 | 33.06496 | -87.66815 | 33035 ft | 540 kts | 72° |
| 2026-05-07 17:55 | 33.08602 | -87.58282 | 33042 ft | 540 kts | 72° |
| 2026-05-07 17:56 | 33.10708 | -87.49693 | 33052 ft | 540 kts | 72° |
| 2026-05-07 17:56 | 33.12409 | -87.40986 | 33043 ft | 539 kts | 81° |
| 2026-05-07 17:57 | 33.13489 | -87.33595 | 33069 ft | 540 kts | 80° |
| 2026-05-07 17:57 | 33.15003 | -87.23325 | 33023 ft | 542 kts | 80° |
| 2026-05-07 17:58 | 33.16093 | -87.15902 | 33035 ft | 542 kts | 80° |
| 2026-05-07 17:58 | 33.17385 | -87.07030 | 33044 ft | 543 kts | 80° |
| 2026-05-07 17:59 | 33.18665 | -86.98140 | 33053 ft | 543 kts | 80° |
| 2026-05-07 17:59 | 33.19939 | -86.89266 | 33043 ft | 544 kts | 81° |
| 2026-05-07 18:00 | 33.21208 | -86.80368 | 33042 ft | 544 kts | 81° |
| 2026-05-07 18:00 | 33.22477 | -86.71462 | 33045 ft | 544 kts | 81° |
| 2026-05-07 18:01 | 33.23739 | -86.62562 | 33038 ft | 544 kts | 81° |
| 2026-05-07 18:01 | 33.24994 | -86.53654 | 33009 ft | 543 kts | 81° |
| 2026-05-07 18:02 | 33.26845 | -86.40315 | 33041 ft | 542 kts | 81° |
| 2026-05-07 18:03 | 33.28081 | -86.31437 | 33044 ft | 541 kts | 81° |
| 2026-05-07 18:03 | 33.29316 | -86.22556 | 33010 ft | 541 kts | 81° |
| 2026-05-07 18:04 | 33.30531 | -86.13746 | 32992 ft | 541 kts | 81° |
| 2026-05-07 18:04 | 33.31757 | -86.04819 | 32972 ft | 540 kts | 81° |
| 2026-05-07 18:05 | 33.32960 | -85.95963 | 32982 ft | 540 kts | 82° |
| 2026-05-07 18:05 | 33.34145 | -85.87100 | 32993 ft | 540 kts | 81° |
| 2026-05-07 18:06 | 33.35328 | -85.78245 | 32992 ft | 539 kts | 82° |
| 2026-05-07 18:06 | 33.36509 | -85.69382 | 32977 ft | 539 kts | 82° |
| 2026-05-07 18:07 | 33.37689 | -85.60517 | 32974 ft | 539 kts | 82° |
| 2026-05-07 18:07 | 33.38863 | -85.51656 | 32959 ft | 539 kts | 82° |
| 2026-05-07 18:08 | 33.40027 | -85.42849 | 32957 ft | 539 kts | 82° |
| 2026-05-07 18:08 | 33.41187 | -85.33987 | 32952 ft | 539 kts | 82° |
| 2026-05-07 18:09 | 33.42333 | -85.25125 | 32998 ft | 539 kts | 82° |
| 2026-05-07 18:09 | 33.43468 | -85.16261 | 33009 ft | 538 kts | 82° |
| 2026-05-07 18:10 | 33.44602 | -85.07410 | 33002 ft | 538 kts | 82° |
| 2026-05-07 18:10 | 33.45740 | -84.98553 | 32981 ft | 538 kts | 82° |
| 2026-05-07 18:11 | 33.46866 | -84.89703 | 32973 ft | 538 kts | 82° |
| 2026-05-07 18:11 | 33.47981 | -84.80838 | 32976 ft | 538 kts | 82° |
| 2026-05-07 18:12 | 33.49089 | -84.71996 | 32958 ft | 538 kts | 82° |
| 2026-05-07 18:12 | 33.50191 | -84.63132 | 32934 ft | 538 kts | 83° |
| 2026-05-07 18:13 | 33.51293 | -84.54267 | 32949 ft | 538 kts | 83° |
| 2026-05-07 18:13 | 33.52383 | -84.45411 | 32967 ft | 537 kts | 83° |
| 2026-05-07 18:14 | 33.53471 | -84.36547 | 32987 ft | 537 kts | 83° |
| 2026-05-07 18:14 | 33.54552 | -84.27694 | 32966 ft | 537 kts | 83° |
| 2026-05-07 18:15 | 33.55620 | -84.18832 | 32996 ft | 537 kts | 83° |
| 2026-05-07 18:15 | 33.56674 | -84.10023 | 32934 ft | 538 kts | 83° |
| 2026-05-07 18:16 | 33.57737 | -84.01152 | 32935 ft | 538 kts | 83° |
| 2026-05-07 18:16 | 33.58792 | -83.92263 | 32937 ft | 538 kts | 83° |
| 2026-05-07 18:17 | 33.60595 | -83.83553 | 32928 ft | 538 kts | 72° |
| 2026-05-07 18:17 | 33.62725 | -83.74941 | 32929 ft | 538 kts | 73° |
| 2026-05-07 18:18 | 33.64858 | -83.66267 | 32918 ft | 538 kts | 73° |
| 2026-05-07 18:18 | 33.67213 | -83.57750 | 32918 ft | 536 kts | 63° |
| 2026-05-07 18:19 | 33.70791 | -83.50020 | 32896 ft | 533 kts | 56° |
| 2026-05-07 18:19 | 33.74544 | -83.42344 | 32904 ft | 533 kts | 56° |
| 2026-05-07 18:20 | 33.78279 | -83.34660 | 32956 ft | 533 kts | 56° |
| 2026-05-07 18:20 | 33.82008 | -83.26949 | 32932 ft | 534 kts | 56° |
| 2026-05-07 18:21 | 33.85821 | -83.19293 | 32920 ft | 532 kts | 53° |
| 2026-05-07 18:21 | 33.89898 | -83.11874 | 32899 ft | 531 kts | 51° |
| 2026-05-07 18:22 | 33.94038 | -83.04521 | 32896 ft | 531 kts | 51° |
| 2026-05-07 18:22 | 33.98086 | -82.97137 | 32548 ft | 522 kts | 52° |
| 2026-05-07 18:22 | 34.00050 | -82.93485 | 32305 ft | 517 kts | 52° |
| 2026-05-07 18:23 | 34.01998 | -82.89848 | 32116 ft | 516 kts | 52° |
| 2026-05-07 18:23 | 34.03937 | -82.86225 | 31867 ft | 515 kts | 52° |
| 2026-05-07 18:23 | 34.05878 | -82.82604 | 31444 ft | 513 kts | 52° |
| 2026-05-07 18:23 | 34.07827 | -82.78982 | 30828 ft | 515 kts | 52° |
| 2026-05-07 18:24 | 34.09777 | -82.75363 | 30241 ft | 515 kts | 52° |
| 2026-05-07 18:24 | 34.11726 | -82.71745 | 29611 ft | 515 kts | 51° |
| 2026-05-07 18:24 | 34.13671 | -82.68132 | 29049 ft | 512 kts | 51° |
| 2026-05-07 18:24 | 34.15603 | -82.64537 | 28479 ft | 509 kts | 52° |
| 2026-05-07 18:25 | 34.17525 | -82.60958 | 27920 ft | 507 kts | 51° |
| 2026-05-07 18:25 | 34.19437 | -82.57397 | 27355 ft | 504 kts | 51° |
| 2026-05-07 18:25 | 34.21332 | -82.53864 | 26865 ft | 500 kts | 52° |
| 2026-05-07 18:25 | 34.23223 | -82.50331 | 26400 ft | 497 kts | 52° |
| 2026-05-07 18:26 | 34.25082 | -82.46846 | 25994 ft | 493 kts | 51° |
| 2026-05-07 18:26 | 34.26912 | -82.43411 | 25495 ft | 491 kts | 51° |
| 2026-05-07 18:26 | 34.28779 | -82.39905 | 25041 ft | 488 kts | 51° |
| 2026-05-07 18:26 | 34.30570 | -82.36534 | 24879 ft | 477 kts | 52° |
| 2026-05-07 18:27 | 34.32339 | -82.33191 | 24708 ft | 466 kts | 51° |
| 2026-05-07 18:27 | 34.34075 | -82.29914 | 24379 ft | 461 kts | 51° |
| 2026-05-07 18:27 | 34.35802 | -82.26666 | 23997 ft | 457 kts | 51° |
| 2026-05-07 18:27 | 34.36941 | -82.24525 | 23742 ft | 455 kts | 51° |
| 2026-05-07 18:28 | 34.39216 | -82.20240 | 23179 ft | 451 kts | 51° |
| 2026-05-07 18:28 | 34.40902 | -82.17060 | 22739 ft | 447 kts | 51° |
| 2026-05-07 18:28 | 34.42573 | -82.13905 | 22323 ft | 443 kts | 51° |
| 2026-05-07 18:28 | 34.44233 | -82.10771 | 21908 ft | 440 kts | 51° |
| 2026-05-07 18:29 | 34.45880 | -82.07658 | 21503 ft | 437 kts | 51° |
| 2026-05-07 18:29 | 34.47513 | -82.04564 | 21121 ft | 434 kts | 51° |
| 2026-05-07 18:29 | 34.49134 | -82.01485 | 20741 ft | 432 kts | 51° |
| 2026-05-07 18:29 | 34.50743 | -81.98421 | 20344 ft | 429 kts | 51° |
| 2026-05-07 18:30 | 34.52345 | -81.95374 | 19967 ft | 427 kts | 51° |
| 2026-05-07 18:30 | 34.53937 | -81.92350 | 19595 ft | 424 kts | 50° |
| 2026-05-07 18:30 | 34.55519 | -81.89348 | 19253 ft | 421 kts | 50° |
| 2026-05-07 18:30 | 34.57087 | -81.86367 | 18918 ft | 418 kts | 50° |
| 2026-05-07 18:31 | 34.58643 | -81.83403 | 18576 ft | 415 kts | 50° |
| 2026-05-07 18:31 | 34.60187 | -81.80456 | 18234 ft | 412 kts | 50° |
| 2026-05-07 18:31 | 34.61721 | -81.77524 | 17855 ft | 410 kts | 50° |
| 2026-05-07 18:31 | 34.63238 | -81.74620 | 17496 ft | 406 kts | 51° |
| 2026-05-07 18:32 | 34.64745 | -81.71739 | 17146 ft | 402 kts | 51° |
| 2026-05-07 18:32 | 34.66237 | -81.68888 | 16810 ft | 398 kts | 51° |
| 2026-05-07 18:32 | 34.67715 | -81.66058 | 16468 ft | 395 kts | 51° |
| 2026-05-07 18:32 | 34.69172 | -81.63257 | 16048 ft | 389 kts | 51° |
| 2026-05-07 18:33 | 34.70604 | -81.60499 | 15466 ft | 384 kts | 52° |
| 2026-05-07 18:33 | 34.72016 | -81.57774 | 14894 ft | 378 kts | 53° |
| 2026-05-07 18:33 | 34.73406 | -81.55094 | 14361 ft | 371 kts | 53° |
| 2026-05-07 18:33 | 34.74772 | -81.52465 | 13820 ft | 365 kts | 53° |
| 2026-05-07 18:34 | 34.76078 | -81.49835 | 13215 ft | 361 kts | 57° |
| 2026-05-07 18:34 | 34.77283 | -81.47171 | 12578 ft | 358 kts | 58° |
| 2026-05-07 18:34 | 34.78240 | -81.44395 | 11963 ft | 356 kts | 73° |
| 2026-05-07 18:34 | 34.78892 | -81.41505 | 11317 ft | 353 kts | 72° |
| 2026-05-07 18:35 | 34.79567 | -81.38656 | 10718 ft | 349 kts | 72° |
| 2026-05-07 18:35 | 34.80258 | -81.35842 | 10118 ft | 345 kts | 71° |
| 2026-05-07 18:35 | 34.80954 | -81.33059 | 9501 ft | 342 kts | 71° |
| 2026-05-07 18:35 | 34.81638 | -81.30343 | 8876 ft | 337 kts | 71° |
| 2026-05-07 18:36 | 34.82319 | -81.27637 | 8252 ft | 332 kts | 71° |
| 2026-05-07 18:36 | 34.82972 | -81.25023 | 8010 ft | 312 kts | 71° |
| 2026-05-07 18:36 | 34.83577 | -81.22585 | 7815 ft | 293 kts | 71° |
| 2026-05-07 18:36 | 34.84163 | -81.20222 | 7369 ft | 287 kts | 71° |
| 2026-05-07 18:37 | 34.84723 | -81.17956 | 7219 ft | 274 kts | 71° |
| 2026-05-07 18:37 | 34.85269 | -81.15753 | 7100 ft | 271 kts | 71° |
| 2026-05-07 18:37 | 34.85741 | -81.13536 | 6986 ft | 270 kts | 82° |
| 2026-05-07 18:37 | 34.86046 | -81.11288 | 6945 ft | 269 kts | 68° |
| 2026-05-07 18:38 | 34.86740 | -81.09238 | 6887 ft | 256 kts | 64° |
| 2026-05-07 18:38 | 34.87431 | -81.07289 | 6747 ft | 246 kts | 63° |
| 2026-05-07 18:38 | 34.88097 | -81.05414 | 6622 ft | 237 kts | 63° |
| 2026-05-07 18:38 | 34.88745 | -81.03593 | 6509 ft | 232 kts | 63° |
| 2026-05-07 18:39 | 34.89386 | -81.01792 | 6374 ft | 231 kts | 63° |
| 2026-05-07 18:39 | 34.90020 | -81.00007 | 6266 ft | 230 kts | 63° |
| 2026-05-07 18:39 | 34.90655 | -80.98215 | 6144 ft | 230 kts | 63° |
| 2026-05-07 18:39 | 34.91291 | -80.96438 | 6041 ft | 228 kts | 60° |
| 2026-05-07 18:40 | 34.92169 | -80.94870 | 5909 ft | 222 kts | 39° |
| 2026-05-07 18:40 | 34.93372 | -80.93737 | 5761 ft | 216 kts | 21° |
| 2026-05-07 18:40 | 34.94756 | -80.93122 | 5525 ft | 212 kts | 4° |
| 2026-05-07 18:40 | 34.96218 | -80.93041 | 5242 ft | 208 kts | 349° |
| 2026-05-07 18:41 | 34.97640 | -80.93164 | 4991 ft | 202 kts | 350° |
| 2026-05-07 18:41 | 34.99021 | -80.93280 | 4744 ft | 197 kts | 350° |
| 2026-05-07 18:41 | 35.00372 | -80.93396 | 4489 ft | 193 kts | 350° |
| 2026-05-07 18:41 | 35.01711 | -80.93511 | 4229 ft | 193 kts | 351° |
| 2026-05-07 18:42 | 35.03045 | -80.93625 | 3974 ft | 192 kts | 352° |
| 2026-05-07 18:42 | 35.04373 | -80.93739 | 3729 ft | 190 kts | 352° |
| 2026-05-07 18:42 | 35.05663 | -80.93849 | 3487 ft | 181 kts | 352° |
| 2026-05-07 18:42 | 35.06878 | -80.93952 | 3250 ft | 169 kts | 352° |
| 2026-05-07 18:43 | 35.08011 | -80.94049 | 3060 ft | 156 kts | 353° |
| 2026-05-07 18:43 | 35.08715 | -80.94110 | 2924 ft | 150 kts | 352° |
| 2026-05-07 18:43 | 35.09745 | -80.94199 | 2722 ft | 147 kts | 352° |
| 2026-05-07 18:43 | 35.10754 | -80.94286 | 2527 ft | 145 kts | 351° |
| 2026-05-07 18:44 | 35.11765 | -80.94373 | 2343 ft | 145 kts | 353° |
| 2026-05-07 18:44 | 35.12774 | -80.94460 | 2159 ft | 146 kts | 351° |
| 2026-05-07 18:44 | 35.13779 | -80.94546 | 1966 ft | 145 kts | 353° |
| 2026-05-07 18:44 | 35.14778 | -80.94632 | 1759 ft | 145 kts | 352° |
| 2026-05-07 18:45 | 35.15786 | -80.94715 | 1554 ft | 145 kts | 354° |
| 2026-05-07 18:45 | 35.16788 | -80.94805 | 1355 ft | 144 kts | 355° |
| 2026-05-07 18:45 | 35.17792 | -80.94906 | 1203 ft | 144 kts | 356° |
| 2026-05-07 18:45 | 35.18793 | -80.94986 | 1028 ft | 144 kts | 353° |
| 2026-05-07 18:46 | 35.19794 | -80.95065 | 810 ft | 144 kts | 355° |
| 2026-05-07 18:46 | 35.20749 | -80.95150 | 738 ft | 121 kts | 356° |
| 2026-05-07 18:46 | 35.21411 | -80.95206 | 738 ft | 71 kts | 356° |
| 2026-05-07 18:46 | 35.21733 | -80.95231 | 741 ft | 28 kts | 356° |
| 2026-05-07 18:47 | 35.21914 | -80.95205 | 741 ft | 25 kts | 18° |
| 2026-05-07 18:47 | 35.22019 | -80.95148 | 737 ft | 13 kts | 30° |
| 2026-05-07 18:47 | 35.22020 | -80.95063 | 734 ft | 12 kts | 147° |
| 2026-05-07 18:47 | 35.21942 | -80.95050 | 734 ft | 10 kts | 175° |
| 2026-05-07 18:48 | 35.21875 | -80.95045 | 734 ft | 9 kts | 177° |
| 2026-05-07 18:48 | 35.21790 | -80.95036 | 734 ft | 14 kts | 174° |
| 2026-05-07 18:48 | 35.21689 | -80.95027 | 734 ft | 15 kts | 176° |
| 2026-05-07 18:48 | 35.21581 | -80.95019 | 733 ft | 16 kts | 177° |
| 2026-05-07 18:49 | 35.21463 | -80.95008 | 733 ft | 17 kts | 175° |
| 2026-05-07 18:49 | 35.21351 | -80.94998 | 733 ft | 16 kts | 176° |
| 2026-05-07 18:49 | 35.21241 | -80.94989 | 733 ft | 14 kts | 175° |
| 2026-05-07 18:49 | 35.21187 | -80.94936 | 732 ft | 10 kts | 98° |
| 2026-05-07 18:50 | 35.21220 | -80.94867 | 731 ft | 9 kts | 49° |
| 2026-05-07 18:50 | 35.21270 | -80.94796 | 732 ft | 11 kts | 52° |
| 2026-05-07 18:50 | 35.21302 | -80.94714 | 731 ft | 10 kts | 74° |
| 2026-05-07 18:50 | 35.21322 | -80.94633 | 732 ft | 9 kts | 71° |
| 2026-05-07 18:51 | 35.21357 | -80.94562 | 731 ft | 12 kts | 51° |
| 2026-05-07 18:51 | 35.21408 | -80.94489 | 731 ft | 10 kts | 49° |
| 2026-05-07 18:51 | 35.21465 | -80.94410 | 731 ft | 16 kts | 48° |
| 2026-05-07 18:51 | 35.21534 | -80.94317 | 732 ft | 14 kts | 48° |
| 2026-05-07 18:52 | 35.21595 | -80.94232 | 732 ft | 13 kts | 49° |
| 2026-05-07 18:52 | 35.21650 | -80.94157 | 731 ft | 11 kts | 48° |
| 2026-05-07 18:52 | 35.21698 | -80.94090 | 732 ft | 10 kts | 48° |
| 2026-05-07 18:52 | 35.21743 | -80.94029 | 732 ft | 9 kts | 48° |
| 2026-05-07 18:53 | 35.21806 | -80.93994 | 731 ft | 12 kts | 349° |
| 2026-05-07 18:53 | 35.21877 | -80.94058 | 732 ft | 14 kts | 321° |
| 2026-05-07 18:53 | 35.21931 | -80.94116 | 732 ft | 10 kts | 315° |
| 2026-05-07 18:53 | 35.21962 | -80.94177 | 732 ft | 5 kts | 286° |
| 2026-05-07 18:54 | 35.21969 | -80.94218 | 732 ft | 2 kts | 282° |
| 2026-05-07 18:54 | 35.21971 | -80.94225 | 732 ft | 0 kts | 282° |